sensor_id;sensor_type;location;lat;lon;timestamp;temperature;humidity
68139;DHT22;54940;50.842;4.410;2023-05-20T00:01:39;15.00;99.40
68139;DHT22;54940;50.842;4.410;2023-05-20T00:04:04;15.00;99.20
68139;DHT22;54940;50.842;4.410;2023-05-20T00:06:30;15.00;99.60
68139;DHT22;54940;50.842;4.410;2023-05-20T00:08:59;14.90;99.40
68139;DHT22;54940;50.842;4.410;2023-05-20T00:11:24;14.90;99.50
68139;DHT22;54940;50.842;4.410;2023-05-20T00:13:52;14.90;99.70
68139;DHT22;54940;50.842;4.410;2023-05-20T00:16:18;14.90;99.90
68139;DHT22;54940;50.842;4.410;2023-05-20T00:18:44;15.00;99.90
68139;DHT22;54940;50.842;4.410;2023-05-20T00:21:09;14.90;99.50
68139;DHT22;54940;50.842;4.410;2023-05-20T00:23:35;14.90;99.50
68139;DHT22;54940;50.842;4.410;2023-05-20T00:26:01;14.90;99.70
68139;DHT22;54940;50.842;4.410;2023-05-20T00:28:26;14.90;99.70
68139;DHT22;54940;50.842;4.410;2023-05-20T00:30:53;14.80;99.80
68139;DHT22;54940;50.842;4.410;2023-05-20T00:33:18;14.80;99.80
68139;DHT22;54940;50.842;4.410;2023-05-20T00:35:44;14.80;99.90
68139;DHT22;54940;50.842;4.410;2023-05-20T00:38:10;14.80;99.90
68139;DHT22;54940;50.842;4.410;2023-05-20T00:40:35;14.70;99.90
68139;DHT22;54940;50.842;4.410;2023-05-20T00:43:01;14.60;99.90
68139;DHT22;54940;50.842;4.410;2023-05-20T00:45:27;14.60;99.90
68139;DHT22;54940;50.842;4.410;2023-05-20T00:47:52;14.60;99.90
68139;DHT22;54940;50.842;4.410;2023-05-20T00:50:24;14.50;99.90
68139;DHT22;54940;50.842;4.410;2023-05-20T00:52:52;14.60;99.90
68139;DHT22;54940;50.842;4.410;2023-05-20T00:55:20;14.50;99.90
68139;DHT22;54940;50.842;4.410;2023-05-20T00:57:47;14.50;99.90
68139;DHT22;54940;50.842;4.410;2023-05-20T01:00:13;14.50;99.90
68139;DHT22;54940;50.842;4.410;2023-05-20T01:02:39;14.50;99.90
68139;DHT22;54940;50.842;4.410;2023-05-20T01:05:05;14.50;99.90
68139;DHT22;54940;50.842;4.410;2023-05-20T01:07:31;14.50;99.90
68139;DHT22;54940;50.842;4.410;2023-05-20T01:09:57;14.50;99.90
68139;DHT22;54940;50.842;4.410;2023-05-20T01:12:29;14.50;99.90
68139;DHT22;54940;50.842;4.410;2023-05-20T01:15:00;14.50;99.90
68139;DHT22;54940;50.842;4.410;2023-05-20T01:17:30;14.40;99.90
68139;DHT22;54940;50.842;4.410;2023-05-20T01:19:58;14.40;99.90
68139;DHT22;54940;50.842;4.410;2023-05-20T01:22:28;14.40;99.90
68139;DHT22;54940;50.842;4.410;2023-05-20T01:24:54;14.40;99.90
68139;DHT22;54940;50.842;4.410;2023-05-20T01:27:22;14.40;99.90
68139;DHT22;54940;50.842;4.410;2023-05-20T01:29:50;14.40;99.90
68139;DHT22;54940;50.842;4.410;2023-05-20T01:34:48;14.40;99.90
68139;DHT22;54940;50.842;4.410;2023-05-20T01:37:14;14.40;99.90
68139;DHT22;54940;50.842;4.410;2023-05-20T01:39:41;14.30;99.90
68139;DHT22;54940;50.842;4.410;2023-05-20T01:42:08;14.30;99.90
68139;DHT22;54940;50.842;4.410;2023-05-20T01:44:34;14.30;99.90
68139;DHT22;54940;50.842;4.410;2023-05-20T01:47:03;14.30;99.90
68139;DHT22;54940;50.842;4.410;2023-05-20T01:49:28;14.30;99.90
68139;DHT22;54940;50.842;4.410;2023-05-20T01:51:54;14.30;99.90
68139;DHT22;54940;50.842;4.410;2023-05-20T01:54:20;14.30;99.90
68139;DHT22;54940;50.842;4.410;2023-05-20T01:56:46;14.20;99.90
68139;DHT22;54940;50.842;4.410;2023-05-20T01:59:12;14.30;99.90
68139;DHT22;54940;50.842;4.410;2023-05-20T02:01:37;14.30;99.90
68139;DHT22;54940;50.842;4.410;2023-05-20T02:04:03;14.30;99.90
68139;DHT22;54940;50.842;4.410;2023-05-20T02:06:29;14.30;99.90
68139;DHT22;54940;50.842;4.410;2023-05-20T02:08:55;14.20;99.90
68139;DHT22;54940;50.842;4.410;2023-05-20T02:11:20;14.10;99.90
68139;DHT22;54940;50.842;4.410;2023-05-20T02:13:48;14.10;99.90
68139;DHT22;54940;50.842;4.410;2023-05-20T02:16:16;13.90;99.90
68139;DHT22;54940;50.842;4.410;2023-05-20T02:18:41;13.90;99.90
68139;DHT22;54940;50.842;4.410;2023-05-20T02:21:08;13.90;99.90
68139;DHT22;54940;50.842;4.410;2023-05-20T02:23:34;13.90;99.90
68139;DHT22;54940;50.842;4.410;2023-05-20T02:26:00;13.90;99.90
68139;DHT22;54940;50.842;4.410;2023-05-20T02:28:28;13.70;99.90
68139;DHT22;54940;50.842;4.410;2023-05-20T02:30:56;13.70;99.90
68139;DHT22;54940;50.842;4.410;2023-05-20T02:33:21;13.60;99.90
68139;DHT22;54940;50.842;4.410;2023-05-20T02:35:47;13.70;99.90
68139;DHT22;54940;50.842;4.410;2023-05-20T02:38:14;13.70;99.90
68139;DHT22;54940;50.842;4.410;2023-05-20T02:40:43;13.70;99.90
68139;DHT22;54940;50.842;4.410;2023-05-20T02:43:09;13.70;99.90
68139;DHT22;54940;50.842;4.410;2023-05-20T02:45:34;13.70;99.90
68139;DHT22;54940;50.842;4.410;2023-05-20T02:48:00;13.60;99.90
68139;DHT22;54940;50.842;4.410;2023-05-20T02:50:26;13.60;99.90
68139;DHT22;54940;50.842;4.410;2023-05-20T02:52:54;13.70;99.90
68139;DHT22;54940;50.842;4.410;2023-05-20T02:55:20;13.70;99.90
68139;DHT22;54940;50.842;4.410;2023-05-20T02:57:45;13.70;99.90
68139;DHT22;54940;50.842;4.410;2023-05-20T03:00:11;13.60;99.90
68139;DHT22;54940;50.842;4.410;2023-05-20T03:02:43;13.60;99.90
68139;DHT22;54940;50.842;4.410;2023-05-20T03:05:08;13.60;99.90
68139;DHT22;54940;50.842;4.410;2023-05-20T03:07:35;13.60;99.90
68139;DHT22;54940;50.842;4.410;2023-05-20T03:10:01;13.60;99.90
68139;DHT22;54940;50.842;4.410;2023-05-20T03:12:30;13.50;99.90
68139;DHT22;54940;50.842;4.410;2023-05-20T03:14:59;13.50;99.90
68139;DHT22;54940;50.842;4.410;2023-05-20T03:17:25;13.30;99.90
68139;DHT22;54940;50.842;4.410;2023-05-20T03:19:51;13.40;99.90
68139;DHT22;54940;50.842;4.410;2023-05-20T03:22:16;13.40;99.90
68139;DHT22;54940;50.842;4.410;2023-05-20T03:24:42;13.40;99.90
68139;DHT22;54940;50.842;4.410;2023-05-20T03:27:08;13.40;99.90
68139;DHT22;54940;50.842;4.410;2023-05-20T03:29:34;13.40;99.90
68139;DHT22;54940;50.842;4.410;2023-05-20T03:32:00;13.40;99.90
68139;DHT22;54940;50.842;4.410;2023-05-20T03:34:26;13.40;99.90
68139;DHT22;54940;50.842;4.410;2023-05-20T03:36:53;13.50;99.90
68139;DHT22;54940;50.842;4.410;2023-05-20T03:39:18;13.50;99.90
68139;DHT22;54940;50.842;4.410;2023-05-20T03:41:44;13.50;99.90
68139;DHT22;54940;50.842;4.410;2023-05-20T03:44:10;13.50;99.90
68139;DHT22;54940;50.842;4.410;2023-05-20T03:46:36;13.50;99.90
68139;DHT22;54940;50.842;4.410;2023-05-20T03:49:01;13.50;99.90
68139;DHT22;54940;50.842;4.410;2023-05-20T03:51:28;13.40;99.90
68139;DHT22;54940;50.842;4.410;2023-05-20T03:53:53;13.30;99.90
68139;DHT22;54940;50.842;4.410;2023-05-20T03:56:19;13.40;99.90
68139;DHT22;54940;50.842;4.410;2023-05-20T03:58:45;13.20;99.90
68139;DHT22;54940;50.842;4.410;2023-05-20T04:01:12;13.20;99.90
68139;DHT22;54940;50.842;4.410;2023-05-20T04:03:39;13.20;99.90
68139;DHT22;54940;50.842;4.410;2023-05-20T04:06:06;13.20;99.90
68139;DHT22;54940;50.842;4.410;2023-05-20T04:08:32;13.20;99.90
68139;DHT22;54940;50.842;4.410;2023-05-20T04:11:01;13.30;99.90
68139;DHT22;54940;50.842;4.410;2023-05-20T04:13:27;13.40;99.90
68139;DHT22;54940;50.842;4.410;2023-05-20T04:15:53;13.30;99.90
68139;DHT22;54940;50.842;4.410;2023-05-20T04:18:18;13.40;99.90
68139;DHT22;54940;50.842;4.410;2023-05-20T04:20:45;13.30;99.90
68139;DHT22;54940;50.842;4.410;2023-05-20T04:23:11;13.40;99.90
68139;DHT22;54940;50.842;4.410;2023-05-20T04:25:37;13.40;99.90
68139;DHT22;54940;50.842;4.410;2023-05-20T04:28:03;13.50;99.90
68139;DHT22;54940;50.842;4.410;2023-05-20T04:30:29;13.50;99.90
68139;DHT22;54940;50.842;4.410;2023-05-20T04:32:58;13.50;99.90
68139;DHT22;54940;50.842;4.410;2023-05-20T04:35:27;13.60;99.90
68139;DHT22;54940;50.842;4.410;2023-05-20T04:37:54;13.70;99.90
68139;DHT22;54940;50.842;4.410;2023-05-20T04:40:19;13.70;99.90
68139;DHT22;54940;50.842;4.410;2023-05-20T04:42:45;13.70;99.90
68139;DHT22;54940;50.842;4.410;2023-05-20T04:45:11;13.80;99.90
68139;DHT22;54940;50.842;4.410;2023-05-20T04:47:38;14.10;99.90
68139;DHT22;54940;50.842;4.410;2023-05-20T04:50:10;14.40;99.90
68139;DHT22;54940;50.842;4.410;2023-05-20T04:52:39;15.10;99.90
68139;DHT22;54940;50.842;4.410;2023-05-20T04:55:07;15.90;99.90
68139;DHT22;54940;50.842;4.410;2023-05-20T04:57:37;16.40;99.90
68139;DHT22;54940;50.842;4.410;2023-05-20T05:00:11;17.10;99.90
68139;DHT22;54940;50.842;4.410;2023-05-20T05:02:37;17.40;99.90
68139;DHT22;54940;50.842;4.410;2023-05-20T05:05:03;17.50;99.90
68139;DHT22;54940;50.842;4.410;2023-05-20T05:07:30;18.00;99.90
68139;DHT22;54940;50.842;4.410;2023-05-20T05:09:55;18.50;99.90
68139;DHT22;54940;50.842;4.410;2023-05-20T05:12:21;18.60;99.90
68139;DHT22;54940;50.842;4.410;2023-05-20T05:14:47;19.10;98.90
68139;DHT22;54940;50.842;4.410;2023-05-20T05:17:12;19.30;99.60
68139;DHT22;54940;50.842;4.410;2023-05-20T05:19:38;19.90;99.10
68139;DHT22;54940;50.842;4.410;2023-05-20T05:22:04;20.50;98.50
68139;DHT22;54940;50.842;4.410;2023-05-20T05:24:29;20.80;97.30
68139;DHT22;54940;50.842;4.410;2023-05-20T05:26:58;20.80;96.80
68139;DHT22;54940;50.842;4.410;2023-05-20T05:29:23;21.10;96.00
68139;DHT22;54940;50.842;4.410;2023-05-20T05:31:49;20.50;95.80
68139;DHT22;54940;50.842;4.410;2023-05-20T05:34:15;20.20;97.00
68139;DHT22;54940;50.842;4.410;2023-05-20T05:36:40;20.80;98.00
68139;DHT22;54940;50.842;4.410;2023-05-20T05:39:06;21.00;96.60
68139;DHT22;54940;50.842;4.410;2023-05-20T05:41:32;21.30;96.30
68139;DHT22;54940;50.842;4.410;2023-05-20T05:43:58;21.70;95.90
68139;DHT22;54940;50.842;4.410;2023-05-20T05:46:24;22.20;94.80
68139;DHT22;54940;50.842;4.410;2023-05-20T05:48:50;22.00;93.80
68139;DHT22;54940;50.842;4.410;2023-05-20T05:51:16;21.30;94.60
68139;DHT22;54940;50.842;4.410;2023-05-20T05:53:42;21.60;95.80
68139;DHT22;54940;50.842;4.410;2023-05-20T05:56:10;21.20;95.60
68139;DHT22;54940;50.842;4.410;2023-05-20T05:58:36;21.40;96.00
68139;DHT22;54940;50.842;4.410;2023-05-20T06:01:04;22.00;95.20
68139;DHT22;54940;50.842;4.410;2023-05-20T06:03:30;22.30;94.40
68139;DHT22;54940;50.842;4.410;2023-05-20T06:05:56;21.80;93.70
68139;DHT22;54940;50.842;4.410;2023-05-20T06:08:22;21.40;93.90
68139;DHT22;54940;50.842;4.410;2023-05-20T06:10:48;20.80;95.80
68139;DHT22;54940;50.842;4.410;2023-05-20T06:13:14;21.40;95.60
68139;DHT22;54940;50.842;4.410;2023-05-20T06:15:40;21.40;95.20
68139;DHT22;54940;50.842;4.410;2023-05-20T06:18:06;21.50;94.30
68139;DHT22;54940;50.842;4.410;2023-05-20T06:20:33;21.00;94.50
68139;DHT22;54940;50.842;4.410;2023-05-20T06:22:59;21.70;95.20
68139;DHT22;54940;50.842;4.410;2023-05-20T06:25:24;22.10;95.90
68139;DHT22;54940;50.842;4.410;2023-05-20T06:27:50;22.50;95.30
68139;DHT22;54940;50.842;4.410;2023-05-20T06:30:16;23.00;94.30
68139;DHT22;54940;50.842;4.410;2023-05-20T06:32:42;23.00;92.60
68139;DHT22;54940;50.842;4.410;2023-05-20T06:35:08;22.70;94.20
68139;DHT22;54940;50.842;4.410;2023-05-20T06:37:34;23.00;93.70
68139;DHT22;54940;50.842;4.410;2023-05-20T06:39:59;22.90;92.50
68139;DHT22;54940;50.842;4.410;2023-05-20T06:42:25;22.00;93.70
68139;DHT22;54940;50.842;4.410;2023-05-20T06:44:51;21.30;94.00
68139;DHT22;54940;50.842;4.410;2023-05-20T06:47:19;21.20;95.00
68139;DHT22;54940;50.842;4.410;2023-05-20T06:49:45;21.80;95.10
68139;DHT22;54940;50.842;4.410;2023-05-20T06:52:10;21.60;94.90
68139;DHT22;54940;50.842;4.410;2023-05-20T06:54:39;21.30;94.50
68139;DHT22;54940;50.842;4.410;2023-05-20T06:57:08;21.30;94.80
68139;DHT22;54940;50.842;4.410;2023-05-20T06:59:35;21.30;94.90
68139;DHT22;54940;50.842;4.410;2023-05-20T07:02:02;21.40;95.90
68139;DHT22;54940;50.842;4.410;2023-05-20T07:04:27;21.60;94.80
68139;DHT22;54940;50.842;4.410;2023-05-20T07:06:53;21.80;94.50
68139;DHT22;54940;50.842;4.410;2023-05-20T07:09:19;21.80;93.90
68139;DHT22;54940;50.842;4.410;2023-05-20T07:11:45;21.60;95.30
68139;DHT22;54940;50.842;4.410;2023-05-20T07:14:10;21.50;95.40
68139;DHT22;54940;50.842;4.410;2023-05-20T07:16:39;21.30;95.80
68139;DHT22;54940;50.842;4.410;2023-05-20T07:19:04;21.70;95.50
68139;DHT22;54940;50.842;4.410;2023-05-20T07:21:30;21.30;94.60
68139;DHT22;54940;50.842;4.410;2023-05-20T07:23:56;20.90;95.30
68139;DHT22;54940;50.842;4.410;2023-05-20T07:26:21;21.40;95.80
68139;DHT22;54940;50.842;4.410;2023-05-20T07:28:47;21.60;94.90
68139;DHT22;54940;50.842;4.410;2023-05-20T07:31:16;21.90;93.50
68139;DHT22;54940;50.842;4.410;2023-05-20T07:33:41;21.60;95.40
68139;DHT22;54940;50.842;4.410;2023-05-20T07:36:07;21.50;94.70
68139;DHT22;54940;50.842;4.410;2023-05-20T07:38:33;21.30;94.60
68139;DHT22;54940;50.842;4.410;2023-05-20T07:40:58;21.30;95.80
68139;DHT22;54940;50.842;4.410;2023-05-20T07:43:24;21.30;95.70
68139;DHT22;54940;50.842;4.410;2023-05-20T07:45:50;21.20;95.30
68139;DHT22;54940;50.842;4.410;2023-05-20T07:48:15;21.10;94.80
68139;DHT22;54940;50.842;4.410;2023-05-20T07:50:43;21.10;95.00
68139;DHT22;54940;50.842;4.410;2023-05-20T07:53:09;21.70;95.30
68139;DHT22;54940;50.842;4.410;2023-05-20T07:55:35;21.50;94.20
68139;DHT22;54940;50.842;4.410;2023-05-20T07:58:03;21.00;95.20
68139;DHT22;54940;50.842;4.410;2023-05-20T08:00:31;21.30;96.30
68139;DHT22;54940;50.842;4.410;2023-05-20T08:02:59;21.70;94.70
68139;DHT22;54940;50.842;4.410;2023-05-20T08:05:25;21.50;94.30
68139;DHT22;54940;50.842;4.410;2023-05-20T08:07:51;21.70;94.00
68139;DHT22;54940;50.842;4.410;2023-05-20T08:10:16;21.50;94.60
68139;DHT22;54940;50.842;4.410;2023-05-20T08:12:42;21.60;94.80
68139;DHT22;54940;50.842;4.410;2023-05-20T08:15:08;21.80;95.20
68139;DHT22;54940;50.842;4.410;2023-05-20T08:17:33;21.90;93.90
68139;DHT22;54940;50.842;4.410;2023-05-20T08:19:59;21.90;93.60
68139;DHT22;54940;50.842;4.410;2023-05-20T08:22:25;21.80;93.10
68139;DHT22;54940;50.842;4.410;2023-05-20T08:24:51;22.10;94.90
68139;DHT22;54940;50.842;4.410;2023-05-20T08:27:17;22.40;94.70
68139;DHT22;54940;50.842;4.410;2023-05-20T08:29:46;22.50;92.50
68139;DHT22;54940;50.842;4.410;2023-05-20T08:32:11;22.30;92.80
68139;DHT22;54940;50.842;4.410;2023-05-20T08:34:39;22.30;92.40
68139;DHT22;54940;50.842;4.410;2023-05-20T08:37:07;22.40;93.70
68139;DHT22;54940;50.842;4.410;2023-05-20T08:39:32;22.80;93.70
68139;DHT22;54940;50.842;4.410;2023-05-20T08:41:58;22.70;91.70
68139;DHT22;54940;50.842;4.410;2023-05-20T08:44:25;22.60;92.80
68139;DHT22;54940;50.842;4.410;2023-05-20T08:46:53;23.20;93.30
68139;DHT22;54940;50.842;4.410;2023-05-20T08:49:19;23.70;92.00
68139;DHT22;54940;50.842;4.410;2023-05-20T08:51:47;23.90;91.30
68139;DHT22;54940;50.842;4.410;2023-05-20T08:54:14;24.10;91.10
68139;DHT22;54940;50.842;4.410;2023-05-20T08:56:42;23.90;89.90
68139;DHT22;54940;50.842;4.410;2023-05-20T08:59:08;23.80;91.80
68139;DHT22;54940;50.842;4.410;2023-05-20T09:01:40;23.70;91.00
68139;DHT22;54940;50.842;4.410;2023-05-20T09:04:07;23.70;90.30
68139;DHT22;54940;50.842;4.410;2023-05-20T09:06:42;23.90;92.10
68139;DHT22;54940;50.842;4.410;2023-05-20T09:09:10;24.40;91.30
68139;DHT22;54940;50.842;4.410;2023-05-20T09:11:42;24.70;90.30
68139;DHT22;54940;50.842;4.410;2023-05-20T09:14:08;25.00;88.70
68139;DHT22;54940;50.842;4.410;2023-05-20T09:16:34;24.40;90.60
68139;DHT22;54940;50.842;4.410;2023-05-20T09:19:05;24.60;89.90
68139;DHT22;54940;50.842;4.410;2023-05-20T09:21:31;24.70;89.50
68139;DHT22;54940;50.842;4.410;2023-05-20T09:24:00;25.10;90.70
68139;DHT22;54940;50.842;4.410;2023-05-20T09:26:27;25.20;88.10
68139;DHT22;54940;50.842;4.410;2023-05-20T09:28:57;25.80;87.30
68139;DHT22;54940;50.842;4.410;2023-05-20T09:31:27;25.80;86.20
68139;DHT22;54940;50.842;4.410;2023-05-20T09:33:54;25.50;84.70
68139;DHT22;54940;50.842;4.410;2023-05-20T09:36:21;25.40;88.80
68139;DHT22;54940;50.842;4.410;2023-05-20T09:38:51;25.50;86.60
68139;DHT22;54940;50.842;4.410;2023-05-20T09:41:19;25.50;85.70
68139;DHT22;54940;50.842;4.410;2023-05-20T09:43:48;25.40;88.60
68139;DHT22;54940;50.842;4.410;2023-05-20T09:46:14;25.70;89.60
68139;DHT22;54940;50.842;4.410;2023-05-20T09:48:40;25.70;85.50
68139;DHT22;54940;50.842;4.410;2023-05-20T09:51:07;25.10;86.70
68139;DHT22;54940;50.842;4.410;2023-05-20T09:53:36;25.00;90.00
68139;DHT22;54940;50.842;4.410;2023-05-20T09:56:02;25.00;85.30
68139;DHT22;54940;50.842;4.410;2023-05-20T09:58:28;25.00;87.80
68139;DHT22;54940;50.842;4.410;2023-05-20T10:00:54;25.30;86.50
68139;DHT22;54940;50.842;4.410;2023-05-20T10:03:23;25.60;85.80
68139;DHT22;54940;50.842;4.410;2023-05-20T10:10:09;26.00;83.30
68139;DHT22;54940;50.842;4.410;2023-05-20T10:17:13;24.80;86.30
68139;DHT22;54940;50.842;4.410;2023-05-20T10:19:41;24.70;86.00
68139;DHT22;54940;50.842;4.410;2023-05-20T10:22:09;24.40;85.70
68139;DHT22;54940;50.842;4.410;2023-05-20T10:24:39;23.80;83.10
68139;DHT22;54940;50.842;4.410;2023-05-20T10:27:09;23.60;88.00
68139;DHT22;54940;50.842;4.410;2023-05-20T10:29:48;24.10;88.00
68139;DHT22;54940;50.842;4.410;2023-05-20T10:32:29;24.60;90.80
68139;DHT22;54940;50.842;4.410;2023-05-20T10:35:03;25.10;84.90
68139;DHT22;54940;50.842;4.410;2023-05-20T10:37:41;25.60;88.70
68139;DHT22;54940;50.842;4.410;2023-05-20T10:40:15;25.80;85.00
68139;DHT22;54940;50.842;4.410;2023-05-20T10:42:44;25.80;85.60
68139;DHT22;54940;50.842;4.410;2023-05-20T10:45:11;25.90;87.00
68139;DHT22;54940;50.842;4.410;2023-05-20T10:47:41;26.40;88.80
68139;DHT22;54940;50.842;4.410;2023-05-20T10:50:34;26.30;84.90
68139;DHT22;54940;50.842;4.410;2023-05-20T10:53:11;26.20;84.70
68139;DHT22;54940;50.842;4.410;2023-05-20T10:55:37;26.20;84.60
68139;DHT22;54940;50.842;4.410;2023-05-20T10:58:05;26.70;85.50
68139;DHT22;54940;50.842;4.410;2023-05-20T11:00:35;26.90;83.70
68139;DHT22;54940;50.842;4.410;2023-05-20T11:03:04;26.80;86.20
68139;DHT22;54940;50.842;4.410;2023-05-20T11:05:32;27.30;79.40
68139;DHT22;54940;50.842;4.410;2023-05-20T11:08:02;27.30;86.20
68139;DHT22;54940;50.842;4.410;2023-05-20T11:10:28;26.50;81.40
68139;DHT22;54940;50.842;4.410;2023-05-20T11:12:56;26.90;86.20
68139;DHT22;54940;50.842;4.410;2023-05-20T11:15:22;27.30;85.60
68139;DHT22;54940;50.842;4.410;2023-05-20T11:17:54;27.60;81.60
68139;DHT22;54940;50.842;4.410;2023-05-20T11:20:21;28.00;85.10
68139;DHT22;54940;50.842;4.410;2023-05-20T11:22:52;27.60;79.90
68139;DHT22;54940;50.842;4.410;2023-05-20T11:25:18;27.90;81.70
68139;DHT22;54940;50.842;4.410;2023-05-20T11:27:45;28.20;81.80
68139;DHT22;54940;50.842;4.410;2023-05-20T11:30:12;28.20;81.10
68139;DHT22;54940;50.842;4.410;2023-05-20T11:33:02;27.60;80.60
68139;DHT22;54940;50.842;4.410;2023-05-20T11:35:28;27.30;80.20
68139;DHT22;54940;50.842;4.410;2023-05-20T11:38:04;25.60;80.50
68139;DHT22;54940;50.842;4.410;2023-05-20T11:40:34;25.40;84.70
68139;DHT22;54940;50.842;4.410;2023-05-20T11:43:01;26.00;85.20
68139;DHT22;54940;50.842;4.410;2023-05-20T11:45:43;26.00;87.30
68139;DHT22;54940;50.842;4.410;2023-05-20T11:48:10;26.70;87.60
68139;DHT22;54940;50.842;4.410;2023-05-20T11:50:42;27.00;83.50
68139;DHT22;54940;50.842;4.410;2023-05-20T11:53:10;27.00;84.60
68139;DHT22;54940;50.842;4.410;2023-05-20T11:58:15;28.00;81.90
68139;DHT22;54940;50.842;4.410;2023-05-20T12:00:40;28.60;81.80
68139;DHT22;54940;50.842;4.410;2023-05-20T12:03:06;28.20;77.50
68139;DHT22;54940;50.842;4.410;2023-05-20T12:05:32;27.90;76.40
68139;DHT22;54940;50.842;4.410;2023-05-20T12:07:57;27.00;82.90
68139;DHT22;54940;50.842;4.410;2023-05-20T12:10:23;27.50;85.50
68139;DHT22;54940;50.842;4.410;2023-05-20T12:12:49;27.90;79.60
68139;DHT22;54940;50.842;4.410;2023-05-20T12:15:17;27.90;80.70
68139;DHT22;54940;50.842;4.410;2023-05-20T12:17:44;28.10;80.90
68139;DHT22;54940;50.842;4.410;2023-05-20T12:20:12;28.10;81.80
68139;DHT22;54940;50.842;4.410;2023-05-20T12:22:38;27.80;80.40
68139;DHT22;54940;50.842;4.410;2023-05-20T12:25:04;27.30;83.40
68139;DHT22;54940;50.842;4.410;2023-05-20T12:27:30;27.80;80.10
68139;DHT22;54940;50.842;4.410;2023-05-20T12:29:58;27.70;76.60
68139;DHT22;54940;50.842;4.410;2023-05-20T12:32:23;27.80;77.60
68139;DHT22;54940;50.842;4.410;2023-05-20T12:34:49;28.00;83.10
68139;DHT22;54940;50.842;4.410;2023-05-20T12:37:15;28.60;82.70
68139;DHT22;54940;50.842;4.410;2023-05-20T12:39:40;28.70;76.90
68139;DHT22;54940;50.842;4.410;2023-05-20T12:42:06;28.20;78.00
68139;DHT22;54940;50.842;4.410;2023-05-20T12:44:34;28.10;80.70
68139;DHT22;54940;50.842;4.410;2023-05-20T12:47:00;27.90;78.60
68139;DHT22;54940;50.842;4.410;2023-05-20T12:49:25;28.20;77.70
68139;DHT22;54940;50.842;4.410;2023-05-20T12:51:51;27.10;79.20
68139;DHT22;54940;50.842;4.410;2023-05-20T12:54:17;27.10;82.50
68139;DHT22;54940;50.842;4.410;2023-05-20T12:56:43;27.80;82.70
68139;DHT22;54940;50.842;4.410;2023-05-20T12:59:14;27.70;79.20
68139;DHT22;54940;50.842;4.410;2023-05-20T13:01:39;26.60;81.70
68139;DHT22;54940;50.842;4.410;2023-05-20T13:04:05;27.10;84.90
68139;DHT22;54940;50.842;4.410;2023-05-20T13:06:33;27.90;81.00
68139;DHT22;54940;50.842;4.410;2023-05-20T13:08:59;28.60;82.80
68139;DHT22;54940;50.842;4.410;2023-05-20T13:11:24;28.80;79.20
68139;DHT22;54940;50.842;4.410;2023-05-20T13:13:54;29.10;78.80
68139;DHT22;54940;50.842;4.410;2023-05-20T13:16:21;28.80;76.50
68139;DHT22;54940;50.842;4.410;2023-05-20T13:18:47;28.50;75.40
68139;DHT22;54940;50.842;4.410;2023-05-20T13:21:13;27.50;80.40
68139;DHT22;54940;50.842;4.410;2023-05-20T13:23:40;27.70;80.30
68139;DHT22;54940;50.842;4.410;2023-05-20T13:26:06;27.60;78.90
68139;DHT22;54940;50.842;4.410;2023-05-20T13:28:31;27.80;81.40
68139;DHT22;54940;50.842;4.410;2023-05-20T13:30:57;28.00;81.30
68139;DHT22;54940;50.842;4.410;2023-05-20T13:33:22;27.90;79.30
68139;DHT22;54940;50.842;4.410;2023-05-20T13:35:49;28.10;82.30
68139;DHT22;54940;50.842;4.410;2023-05-20T13:38:14;28.20;79.80
68139;DHT22;54940;50.842;4.410;2023-05-20T13:40:40;28.40;78.70
68139;DHT22;54940;50.842;4.410;2023-05-20T13:43:06;28.50;78.10
68139;DHT22;54940;50.842;4.410;2023-05-20T13:45:32;29.00;78.50
68139;DHT22;54940;50.842;4.410;2023-05-20T13:47:57;29.00;76.30
68139;DHT22;54940;50.842;4.410;2023-05-20T13:50:24;28.30;78.90
68139;DHT22;54940;50.842;4.410;2023-05-20T13:52:49;28.10;79.80
68139;DHT22;54940;50.842;4.410;2023-05-20T13:55:18;27.60;79.30
68139;DHT22;54940;50.842;4.410;2023-05-20T13:57:43;27.80;79.30
68139;DHT22;54940;50.842;4.410;2023-05-20T14:00:09;28.20;80.00
68139;DHT22;54940;50.842;4.410;2023-05-20T14:02:38;28.30;78.70
68139;DHT22;54940;50.842;4.410;2023-05-20T14:05:04;27.60;75.90
68139;DHT22;54940;50.842;4.410;2023-05-20T14:07:30;27.20;78.70
68139;DHT22;54940;50.842;4.410;2023-05-20T14:09:58;27.20;81.40
68139;DHT22;54940;50.842;4.410;2023-05-20T14:12:23;27.30;79.50
68139;DHT22;54940;50.842;4.410;2023-05-20T14:14:49;27.50;79.90
68139;DHT22;54940;50.842;4.410;2023-05-20T14:17:15;27.30;78.80
68139;DHT22;54940;50.842;4.410;2023-05-20T14:19:41;26.90;80.90
68139;DHT22;54940;50.842;4.410;2023-05-20T14:22:06;27.10;81.20
68139;DHT22;54940;50.842;4.410;2023-05-20T14:24:32;27.30;78.30
68139;DHT22;54940;50.842;4.410;2023-05-20T14:26:57;27.00;81.70
68139;DHT22;54940;50.842;4.410;2023-05-20T14:29:23;26.40;78.80
68139;DHT22;54940;50.842;4.410;2023-05-20T14:31:49;25.70;80.60
68139;DHT22;54940;50.842;4.410;2023-05-20T14:34:14;25.00;84.60
68139;DHT22;54940;50.842;4.410;2023-05-20T14:36:40;24.60;85.30
68139;DHT22;54940;50.842;4.410;2023-05-20T14:39:06;24.80;84.90
68139;DHT22;54940;50.842;4.410;2023-05-20T14:41:34;24.40;86.60
68139;DHT22;54940;50.842;4.410;2023-05-20T14:43:59;24.30;86.50
68139;DHT22;54940;50.842;4.410;2023-05-20T14:46:25;24.00;87.30
68139;DHT22;54940;50.842;4.410;2023-05-20T14:48:51;23.80;89.70
68139;DHT22;54940;50.842;4.410;2023-05-20T14:51:17;23.60;90.00
68139;DHT22;54940;50.842;4.410;2023-05-20T14:53:42;23.50;89.20
68139;DHT22;54940;50.842;4.410;2023-05-20T14:56:08;23.50;90.20
68139;DHT22;54940;50.842;4.410;2023-05-20T14:58:34;23.60;90.30
68139;DHT22;54940;50.842;4.410;2023-05-20T15:01:00;23.50;90.10
68139;DHT22;54940;50.842;4.410;2023-05-20T15:03:28;23.40;89.50
68139;DHT22;54940;50.842;4.410;2023-05-20T15:05:53;23.40;90.90
68139;DHT22;54940;50.842;4.410;2023-05-20T15:08:21;23.30;90.70
68139;DHT22;54940;50.842;4.410;2023-05-20T15:10:47;23.40;90.50
68139;DHT22;54940;50.842;4.410;2023-05-20T15:13:12;23.10;89.80
68139;DHT22;54940;50.842;4.410;2023-05-20T15:15:38;23.10;90.70
68139;DHT22;54940;50.842;4.410;2023-05-20T15:18:03;23.20;91.50
68139;DHT22;54940;50.842;4.410;2023-05-20T15:20:29;23.40;91.10
68139;DHT22;54940;50.842;4.410;2023-05-20T15:22:56;23.40;90.30
68139;DHT22;54940;50.842;4.410;2023-05-20T15:25:21;23.30;91.20
68139;DHT22;54940;50.842;4.410;2023-05-20T15:27:47;23.30;91.50
68139;DHT22;54940;50.842;4.410;2023-05-20T15:30:15;23.10;90.20
68139;DHT22;54940;50.842;4.410;2023-05-20T15:32:43;23.00;91.00
68139;DHT22;54940;50.842;4.410;2023-05-20T15:35:09;23.20;92.10
68139;DHT22;54940;50.842;4.410;2023-05-20T15:37:35;23.20;91.30
68139;DHT22;54940;50.842;4.410;2023-05-20T15:40:00;23.10;90.90
68139;DHT22;54940;50.842;4.410;2023-05-20T15:42:26;22.90;91.00